Time;durP1;ratioP1;P1;durP2;ratioP2;P2;SDS_P1;SDS_P2;PMS_P1;PMS_P2;Temp;Humidity;BMP_temperature;BMP_pressure;BME280_temperature;BME280_humidity;BME280_pressure;Samples;Min_cycle;Max_cycle;Signal;HPM_P1;HPM_P2
2022/07/15 00:02:08;;;;;;;1999.90;999.90;;;;;;;15.47;99.22;99479.03;5048632;28;20045;-55
2022/07/15 00:04:52;;;;;;;1999.90;999.90;;;;;;;15.43;98.74;99485.38;5045237;28;20506;-55
2022/07/15 00:07:37;;;;;;;1999.90;999.90;;;;;;;15.37;99.55;99480.38;5045569;28;20056;-54
2022/07/15 00:10:23;;;;;;;1999.90;999.90;;;;;;;15.27;100.00;99473.88;5043619;28;20095;-55
2022/07/15 00:13:07;;;;;;;1999.90;999.90;;;;;;;15.39;100.00;99474.09;5043270;28;20041;-54
2022/07/15 00:15:52;;;;;;;1999.90;999.90;;;;;;;15.32;100.00;99474.50;5043755;28;20414;-55
2022/07/15 00:18:36;;;;;;;1999.90;999.90;;;;;;;15.27;100.00;99482.63;5044192;28;20044;-54
2022/07/15 00:21:20;;;;;;;1999.90;999.90;;;;;;;15.17;100.00;99494.56;5044542;28;20514;-54
2022/07/15 00:24:05;;;;;;;1999.90;999.90;;;;;;;15.07;100.00;99501.22;5044368;28;20094;-54
2022/07/15 00:26:49;;;;;;;1999.90;999.90;;;;;;;15.00;100.00;99491.91;5043281;28;20167;-54
2022/07/15 00:29:34;;;;;;;1999.90;999.90;;;;;;;15.05;100.00;99498.66;5045281;28;20061;-54
2022/07/15 00:32:18;;;;;;;1999.90;999.90;;;;;;;14.95;100.00;99490.34;5040977;28;20422;-54
2022/07/15 00:35:04;;;;;;;1999.90;999.90;;;;;;;14.87;100.00;99494.28;5041464;28;20838;-54
2022/07/15 00:37:49;;;;;;;1999.90;999.90;;;;;;;14.87;100.00;99491.63;5041978;28;20037;-55
2022/07/15 00:40:40;;;;;;;1999.90;999.90;;;;;;;14.83;100.00;99490.94;5042267;28;20057;-54
2022/07/15 00:43:25;;;;;;;1999.90;999.90;;;;;;;14.80;100.00;99495.50;5042661;28;20045;-55
2022/07/15 00:46:09;;;;;;;1999.90;999.90;;;;;;;14.67;100.00;99501.34;5044425;28;20041;-54
2022/07/15 00:48:53;;;;;;;1999.90;999.90;;;;;;;14.51;100.00;99495.06;5046267;28;20071;-54
2022/07/15 00:51:42;;;;;;;1999.90;999.90;;;;;;;14.46;100.00;99497.00;5042639;28;20045;-54
2022/07/15 00:54:27;;;;;;;1999.90;999.90;;;;;;;14.37;100.00;99493.03;5042701;28;20072;-54
2022/07/15 00:57:12;;;;;;;1999.90;999.90;;;;;;;14.37;100.00;99492.19;5042748;28;20373;-55
2022/07/15 01:00:01;;;;;;;1999.90;999.90;;;;;;;14.37;100.00;99487.78;5043376;28;20049;-54
2022/07/15 01:02:50;;;;;;;1999.90;999.90;;;;;;;14.27;100.00;99494.38;5044752;28;20073;-54
2022/07/15 01:05:36;;;;;;;1999.90;999.90;;;;;;;14.10;100.00;99494.25;5055373;28;20076;-55
2022/07/15 01:08:20;;;;;;;1999.90;999.90;;;;;;;14.00;100.00;99499.94;5058175;28;20055;-54
2022/07/15 01:11:04;;;;;;;1999.90;999.90;;;;;;;14.08;100.00;99507.50;5044318;28;20737;-54
2022/07/15 01:13:49;;;;;;;1999.90;999.90;;;;;;;13.92;100.00;99504.69;5061770;28;20044;-55
2022/07/15 01:16:34;;;;;;;1999.90;999.90;;;;;;;13.84;100.00;99516.47;5043149;28;20107;-54
2022/07/15 01:19:19;;;;;;;1999.90;999.90;;;;;;;13.86;100.00;99514.63;5041047;28;20404;-55
2022/07/15 01:22:05;;;;;;;1999.90;999.90;;;;;;;13.88;100.00;99518.06;5045049;28;20048;-55
2022/07/15 01:24:52;;;;;;;1999.90;999.90;;;;;;;13.84;100.00;99522.56;5044661;28;20118;-55
2022/07/15 01:27:41;;;;;;;1999.90;999.90;;;;;;;13.71;100.00;99524.03;5045376;28;20086;-55
2022/07/15 01:30:26;;;;;;;1999.90;999.90;;;;;;;13.69;100.00;99536.41;5041874;28;20045;-55
2022/07/15 01:33:11;;;;;;;1999.90;999.90;;;;;;;13.71;100.00;99540.66;5043556;28;20060;-54
2022/07/15 01:35:56;;;;;;;1999.90;999.90;;;;;;;13.71;100.00;99537.19;5043344;28;20415;-54
2022/07/15 01:38:42;;;;;;;1999.90;999.90;;;;;;;13.66;100.00;99539.16;5041348;28;20118;-54
2022/07/15 01:41:26;;;;;;;1999.90;999.90;;;;;;;13.74;100.00;99537.06;5041066;28;20559;-54
2022/07/15 01:44:13;;;;;;;1999.90;999.90;;;;;;;13.65;100.00;99546.22;5045879;28;20090;-55
2022/07/15 01:46:59;;;;;;;1999.90;999.90;;;;;;;13.20;100.00;99544.50;5057899;28;20049;-54
2022/07/15 01:49:48;;;;;;;1999.90;999.90;;;;;;;13.36;100.00;99543.91;5046858;28;20055;-55
2022/07/15 01:52:58;;;;;;;1999.90;999.90;;;;;;;13.17;100.00;99538.50;5042179;28;20045;-54
2022/07/15 01:55:45;;;;;;;1999.90;999.90;;;;;;;13.12;100.00;99533.41;5040660;28;20049;-55
2022/07/15 01:58:30;;;;;;;1999.90;999.90;;;;;;;13.08;100.00;99540.56;5039615;28;20111;-54
2022/07/15 02:01:17;;;;;;;1999.90;999.90;;;;;;;12.91;100.00;99537.75;5068853;28;20076;-54
2022/07/15 02:04:03;;;;;;;1999.90;999.90;;;;;;;12.93;100.00;99542.94;5040591;28;20049;-54
2022/07/15 02:06:47;;;;;;;1999.90;999.90;;;;;;;12.79;100.00;99544.34;5040893;28;20048;-54
2022/07/15 02:09:35;;;;;;;1999.90;999.90;;;;;;;12.71;100.00;99550.81;5041219;28;20476;-54
2022/07/15 02:12:20;;;;;;;1999.90;999.90;;;;;;;12.69;100.00;99552.63;5058056;28;20048;-54
2022/07/15 02:15:10;;;;;;;1999.90;999.90;;;;;;;12.50;100.00;99553.31;5038933;28;20060;-54
2022/07/15 02:18:01;;;;;;;1999.90;999.90;;;;;;;12.46;100.00;99550.88;5039195;28;20072;-54
2022/07/15 02:20:48;;;;;;;1999.90;999.90;;;;;;;12.46;100.00;99549.09;5041160;28;20044;-54
2022/07/15 02:23:32;;;;;;;1999.90;999.90;;;;;;;12.24;100.00;99558.66;5040581;28;20562;-54
2022/07/15 02:26:17;;;;;;;1999.90;999.90;;;;;;;12.16;100.00;99567.66;5040159;28;20057;-54
2022/07/15 02:29:02;;;;;;;1999.90;999.90;;;;;;;12.25;100.00;99570.88;5038730;28;20044;-54
2022/07/15 02:31:47;;;;;;;1999.90;999.90;;;;;;;12.24;100.00;99561.28;5041630;28;20037;-54
2022/07/15 02:34:32;;;;;;;1999.90;999.90;;;;;;;12.10;100.00;99560.00;5044823;28;20172;-54
2022/07/15 02:37:17;;;;;;;1999.90;999.90;;;;;;;12.27;100.00;99556.78;5049310;28;20046;-54
2022/07/15 02:40:01;;;;;;;1999.90;999.90;;;;;;;12.18;100.00;99564.97;5049495;28;20045;-54
2022/07/15 02:42:51;;;;;;;1999.90;999.90;;;;;;;12.19;100.00;99569.34;5050222;28;20446;-54
2022/07/15 02:45:37;;;;;;;1999.90;999.90;;;;;;;12.21;100.00;99569.28;5048953;28;20053;-54
2022/07/15 02:48:26;;;;;;;1999.90;999.90;;;;;;;11.96;100.00;99590.25;5049291;28;20052;-54
2022/07/15 02:51:10;;;;;;;1999.90;999.90;;;;;;;12.11;100.00;99592.38;5049664;28;20069;-54
2022/07/15 02:53:55;;;;;;;1999.90;999.90;;;;;;;12.06;100.00;99592.53;5048298;28;20057;-54
2022/07/15 02:56:41;;;;;;;1999.90;999.90;;;;;;;12.07;100.00;99590.75;5049886;28;20128;-54
2022/07/15 02:59:26;;;;;;;1999.90;999.90;;;;;;;12.25;100.00;99584.88;5049524;28;20472;-54
2022/07/15 03:02:12;;;;;;;1999.90;999.90;;;;;;;12.29;100.00;99591.72;5050464;28;20140;-54
2022/07/15 03:04:57;;;;;;;1999.90;999.90;;;;;;;12.30;100.00;99598.69;5042729;28;20053;-55
2022/07/15 03:07:42;;;;;;;1999.90;999.90;;;;;;;12.38;100.00;99608.91;5042986;28;20037;-54
2022/07/15 03:10:26;;;;;;;1999.90;999.90;;;;;;;12.39;100.00;99615.91;5048788;28;20041;-54
2022/07/15 03:13:11;;;;;;;1999.90;999.90;;;;;;;12.22;100.00;99615.59;5042950;28;20511;-54
2022/07/15 03:15:56;;;;;;;1999.90;999.90;;;;;;;12.25;100.00;99620.75;5047376;28;20053;-54
2022/07/15 03:18:43;;;;;;;1999.90;999.90;;;;;;;12.28;100.00;99618.03;5042736;28;20061;-54
2022/07/15 03:21:28;;;;;;;1999.90;999.90;;;;;;;12.37;100.00;99620.34;5043689;28;20041;-54
2022/07/15 03:24:13;;;;;;;1999.90;999.90;;;;;;;12.51;100.00;99627.72;5044454;28;20706;-53
2022/07/15 03:26:59;;;;;;;1999.90;999.90;;;;;;;12.50;100.00;99631.25;5042880;28;20053;-53
2022/07/15 03:29:46;;;;;;;1999.90;999.90;;;;;;;12.58;100.00;99634.50;5049891;28;20044;-54
2022/07/15 03:32:30;;;;;;;1999.90;999.90;;;;;;;12.82;100.00;99636.22;5050024;28;20052;-54
2022/07/15 03:35:15;;;;;;;1999.90;999.90;;;;;;;12.93;100.00;99634.94;5049761;28;20044;-54
2022/07/15 03:38:00;;;;;;;1999.90;999.90;;;;;;;13.03;100.00;99634.56;5045396;28;20072;-54
2022/07/15 03:40:44;;;;;;;1999.90;999.90;;;;;;;12.98;100.00;99636.50;5042595;28;20044;-54
2022/07/15 03:43:30;;;;;;;1999.90;999.90;;;;;;;13.12;100.00;99643.84;5047428;28;20053;-53
2022/07/15 03:46:15;;;;;;;1999.90;999.90;;;;;;;13.14;100.00;99656.97;5046385;28;20132;-54
2022/07/15 03:49:05;;;;;;;1999.90;999.90;;;;;;;13.13;100.00;99650.84;5046863;28;20387;-54
2022/07/15 03:51:51;;;;;;;1999.90;999.90;;;;;;;13.13;100.00;99656.09;5043447;28;20053;-54
2022/07/15 03:54:36;;;;;;;1999.90;999.90;;;;;;;13.21;100.00;99659.28;5071941;28;20049;-54
2022/07/15 03:57:20;;;;;;;1999.90;999.90;;;;;;;13.31;100.00;99662.47;5042026;28;20069;-54
2022/07/15 04:00:06;;;;;;;1999.90;999.90;;;;;;;13.35;100.00;99660.56;5042884;28;20054;-54
2022/07/15 04:02:59;;;;;;;1999.90;999.90;;;;;;;13.47;100.00;99658.31;5042141;28;20403;-54
2022/07/15 04:05:44;;;;;;;1999.90;999.90;;;;;;;13.61;100.00;99652.50;5041291;28;20072;-54
2022/07/15 04:08:28;;;;;;;1999.90;999.90;;;;;;;13.63;100.00;99668.25;5055893;28;20055;-54
2022/07/15 04:11:13;;;;;;;1999.90;999.90;;;;;;;13.78;100.00;99671.13;5042694;28;20045;-54
2022/07/15 04:13:59;;;;;;;1999.90;999.90;;;;;;;14.05;100.00;99670.06;5047254;28;20061;-54
2022/07/15 04:16:44;;;;;;;1999.90;999.90;;;;;;;14.23;100.00;99664.00;5044045;28;20049;-54
2022/07/15 04:19:49;;;;;;;1999.90;999.90;;;;;;;14.58;100.00;99673.06;5057110;28;20085;-54
2022/07/15 04:22:44;;;;;;;1999.90;999.90;;;;;;;14.27;100.00;99671.72;5041098;28;20036;-54
2022/07/15 04:25:28;;;;;;;1999.90;999.90;;;;;;;14.00;100.00;99678.13;5042449;28;20053;-54
2022/07/15 04:28:13;;;;;;;1999.90;999.90;;;;;;;14.08;100.00;99675.19;5059192;28;20045;-55
2022/07/15 04:30:59;;;;;;;1999.90;999.90;;;;;;;14.66;100.00;99678.88;5041047;28;20501;-55
2022/07/15 04:33:47;;;;;;;1999.90;999.90;;;;;;;14.98;100.00;99681.81;5045789;28;20041;-54
2022/07/15 04:36:31;;;;;;;1999.90;999.90;;;;;;;14.61;100.00;99679.97;5058166;28;20041;-55
2022/07/15 04:39:15;;;;;;;1999.90;999.90;;;;;;;14.31;100.00;99690.88;5042992;28;20484;-54
2022/07/15 04:42:00;;;;;;;1999.90;999.90;;;;;;;14.23;100.00;99675.41;5040901;28;20050;-55
2022/07/15 04:44:45;;;;;;;1999.90;999.90;;;;;;;15.12;100.00;99692.63;5040921;28;20053;-54
2022/07/15 04:47:34;;;;;;;1999.90;999.90;;;;;;;15.41;100.00;99698.34;5042371;28;20053;-54
2022/07/15 04:53:25;;;;;;;1999.90;999.90;;;;;;;14.98;100.00;99696.81;5040097;28;20052;-54
2022/07/15 04:56:11;;;;;;;1999.90;999.90;;;;;;;15.22;100.00;99682.50;5041219;28;20045;-54
2022/07/15 04:58:56;;;;;;;1999.90;999.90;;;;;;;15.24;100.00;99712.34;5041371;28;20045;-54
2022/07/15 05:01:40;;;;;;;1999.90;999.90;;;;;;;15.73;100.00;99711.81;5041821;28;20042;-51
2022/07/15 05:04:26;;;;;;;1999.90;999.90;;;;;;;15.76;100.00;99717.84;5044442;28;20043;-55
2022/07/15 05:07:12;;;;;;;1999.90;999.90;;;;;;;15.78;100.00;99718.59;5040275;28;20107;-55
2022/07/15 05:09:57;;;;;;;1999.90;999.90;;;;;;;16.03;100.00;99723.56;5041918;28;20045;-55
2022/07/15 05:12:42;;;;;;;1999.90;999.90;;;;;;;16.07;100.00;99724.28;5062943;28;20061;-55
2022/07/15 05:15:26;;;;;;;1999.90;999.90;;;;;;;16.43;100.00;99732.16;5049903;28;20091;-54
2022/07/15 05:18:11;;;;;;;1999.90;999.90;;;;;;;16.66;100.00;99733.63;5048938;28;20041;-55
2022/07/15 05:20:56;;;;;;;1999.90;999.90;;;;;;;16.64;99.66;99740.81;5047481;28;20052;-54
2022/07/15 05:23:44;;;;;;;1999.90;999.90;;;;;;;16.75;97.41;99749.06;5048211;28;20041;-54
2022/07/15 05:26:28;;;;;;;1999.90;999.90;;;;;;;16.90;97.40;99752.72;5047890;28;20048;-55
2022/07/15 05:29:13;;;;;;;1999.90;999.90;;;;;;;16.94;95.33;99756.91;5048257;28;20079;-55
2022/07/15 05:31:58;;;;;;;1999.90;999.90;;;;;;;16.80;95.83;99749.69;5048265;28;20053;-54
2022/07/15 05:34:44;;;;;;;1999.90;999.90;;;;;;;17.05;96.18;99757.19;5045851;28;20056;-55
2022/07/15 05:37:31;;;;;;;1999.90;999.90;;;;;;;17.04;94.54;99760.78;5043321;28;21327;-54
2022/07/15 05:40:15;;;;;;;1999.90;999.90;;;;;;;16.85;96.19;99757.38;5043605;28;20057;-55
2022/07/15 05:43:08;;;;;;;1999.90;999.90;;;;;;;17.05;92.39;99751.03;5046975;28;20112;-55
2022/07/15 05:45:56;;;;;;;1999.90;999.90;;;;;;;17.40;94.60;99756.25;5046231;28;20488;-54
2022/07/15 05:48:44;;;;;;;1999.90;999.90;;;;;;;17.35;92.95;99760.94;5047078;28;20045;-53
2022/07/15 05:51:29;;;;;;;1999.90;999.90;;;;;;;17.31;90.00;99754.94;5037984;28;20281;-55
2022/07/15 05:54:15;;;;;;;1999.90;999.90;;;;;;;17.36;89.25;99763.53;5047698;28;20057;-56
2022/07/15 05:57:01;;;;;;;1999.90;999.90;;;;;;;17.28;88.24;99776.28;5046039;28;20049;-54
2022/07/15 05:59:46;;;;;;;1999.90;999.90;;;;;;;17.34;85.62;99772.47;5046307;28;20040;-55
2022/07/15 06:02:31;;;;;;;1999.90;999.90;;;;;;;18.11;86.47;99772.66;5045832;28;20789;-55
2022/07/15 06:05:16;;;;;;;1999.90;999.90;;;;;;;17.98;87.69;99787.53;5040892;28;20392;-55
2022/07/15 06:08:07;;;;;;;1999.90;999.90;;;;;;;17.85;84.39;99783.84;5042427;28;20045;-55
2022/07/15 06:10:55;;;;;;;1999.90;999.90;;;;;;;18.10;85.85;99786.84;5044335;28;20102;-55
2022/07/15 06:13:40;;;;;;;1999.90;999.90;;;;;;;18.34;82.71;99789.03;5044979;28;20405;-55
2022/07/15 06:16:25;;;;;;;1999.90;999.90;;;;;;;18.55;83.53;99794.88;5049160;28;20053;-55
2022/07/15 06:19:10;;;;;;;1999.90;999.90;;;;;;;18.27;80.88;99785.88;5050200;28;20057;-55
2022/07/15 06:21:55;;;;;;;1999.90;999.90;;;;;;;18.39;78.51;99787.84;5045026;28;20393;-56
2022/07/15 06:24:42;;;;;;;1999.90;999.90;;;;;;;18.79;79.97;99798.81;5048980;28;20423;-56
2022/07/15 06:27:29;;;;;;;1999.90;999.90;;;;;;;18.69;82.15;99800.25;5045357;28;20132;-55
2022/07/15 06:30:14;;;;;;;1999.90;999.90;;;;;;;18.68;79.63;99796.72;5047536;28;20045;-56
2022/07/15 06:33:01;;;;;;;1999.90;999.90;;;;;;;19.09;77.79;99793.44;5046223;28;20167;-56
2022/07/15 06:35:46;;;;;;;1999.90;999.90;;;;;;;19.64;77.90;99805.19;5043569;28;20049;-56
2022/07/15 06:38:33;;;;;;;1999.90;999.90;;;;;;;19.53;75.47;99797.84;5046244;28;20063;-55
2022/07/15 06:41:18;;;;;;;1999.90;999.90;;;;;;;19.57;74.49;99799.34;5045276;28;20049;-55
2022/07/15 06:44:05;;;;;;;1999.90;999.90;;;;;;;19.90;77.33;99813.31;5050109;28;20045;-56
2022/07/15 06:46:54;;;;;;;1999.90;999.90;;;;;;;19.81;70.56;99820.06;5048915;28;20049;-55
2022/07/15 06:49:39;;;;;;;1999.90;999.90;;;;;;;19.99;72.73;99810.06;5042377;28;20497;-56
2022/07/15 06:52:24;;;;;;;1999.90;999.90;;;;;;;19.61;70.56;99808.00;5049650;28;20671;-55
2022/07/15 06:55:08;;;;;;;1999.90;999.90;;;;;;;20.66;69.81;99811.00;5051923;28;20127;-56
2022/07/15 06:57:54;;;;;;;1999.90;999.90;;;;;;;20.51;70.84;99814.69;5050534;28;20049;-56
2022/07/15 07:00:38;;;;;;;1999.90;999.90;;;;;;;20.53;69.15;99824.25;5064469;28;20049;-56
2022/07/15 07:03:22;;;;;;;1999.90;999.90;;;;;;;20.62;64.66;99828.13;5047710;28;20041;-57
2022/07/15 07:06:08;;;;;;;1999.90;999.90;;;;;;;20.38;66.67;99827.06;5046896;28;20079;-55
2022/07/15 07:08:54;;;;;;;1999.90;999.90;;;;;;;21.02;65.53;99828.09;5045004;28;20049;-56
2022/07/15 07:11:39;;;;;;;1999.90;999.90;;;;;;;20.69;66.86;99817.91;5045450;28;20053;-56
2022/07/15 07:14:23;;;;;;;1999.90;999.90;;;;;;;19.96;65.36;99832.38;5047950;28;20037;-57
2022/07/15 07:17:08;;;;;;;1999.90;999.90;;;;;;;20.69;65.79;99833.88;5046678;28;20040;-57
2022/07/15 07:19:52;;;;;;;1999.90;999.90;;;;;;;21.20;66.78;99823.34;5047035;28;20049;-55
2022/07/15 07:22:37;;;;;;;1999.90;999.90;;;;;;;20.97;65.38;99831.09;5045833;28;20048;-56
2022/07/15 07:25:21;;;;;;;1999.90;999.90;;;;;;;21.17;65.96;99828.88;5046238;28;20041;-56
2022/07/15 07:28:05;;;;;;;1999.90;999.90;;;;;;;21.19;61.49;99832.31;5046513;28;20044;-57
2022/07/15 07:30:54;;;;;;;1999.90;999.90;;;;;;;21.42;64.27;99836.91;5040743;28;20411;-56
2022/07/15 07:33:39;;;;;;;1999.90;999.90;;;;;;;21.60;59.20;99839.25;5044244;28;20073;-58
2022/07/15 07:36:25;;;;;;;1999.90;999.90;;;;;;;22.08;61.64;99837.56;5044161;28;20045;-56
2022/07/15 07:39:09;;;;;;;1999.90;999.90;;;;;;;22.00;61.31;99839.06;5048900;28;20057;-57
2022/07/15 07:41:54;;;;;;;1999.90;999.90;;;;;;;21.87;59.61;99839.97;5044333;28;20036;-56
2022/07/15 07:44:38;;;;;;;1999.90;999.90;;;;;;;22.23;57.32;99846.31;5049009;28;20399;-57
2022/07/15 07:47:23;;;;;;;1999.90;999.90;;;;;;;21.42;57.96;99833.41;5049778;28;20090;-57
2022/07/15 07:50:08;;;;;;;1999.90;999.90;;;;;;;21.61;56.57;99844.47;5050483;28;20045;-57
2022/07/15 07:52:53;;;;;;;1999.90;999.90;;;;;;;21.37;56.14;99832.84;5044767;28;20484;-57
2022/07/15 07:55:38;;;;;;;1999.90;999.90;;;;;;;22.01;54.96;99840.78;5046836;28;20053;-56
2022/07/15 07:58:23;;;;;;;1999.90;999.90;;;;;;;21.98;54.03;99833.84;5061203;28;20867;-57
2022/07/15 08:01:08;;;;;;;1999.90;999.90;;;;;;;21.34;55.24;99825.88;5047752;28;20053;-57
2022/07/15 08:03:52;;;;;;;1999.90;999.90;;;;;;;21.96;53.69;99838.44;5048471;28;20040;-56
2022/07/15 08:06:38;;;;;;;1999.90;999.90;;;;;;;21.70;56.44;99834.97;5043256;28;20155;-57
2022/07/15 08:09:23;;;;;;;1999.90;999.90;;;;;;;21.89;56.42;99832.69;5045307;28;20720;-57
2022/07/15 08:12:07;;;;;;;1999.90;999.90;;;;;;;22.51;55.81;99836.25;5045494;28;20041;-57
2022/07/15 08:14:54;;;;;;;1999.90;999.90;;;;;;;22.98;55.97;99839.91;5043932;28;20052;-57
2022/07/15 08:17:40;;;;;;;1999.90;999.90;;;;;;;22.67;55.15;99834.16;5044507;28;20072;-58
2022/07/15 08:20:24;;;;;;;1999.90;999.90;;;;;;;22.82;55.54;99841.03;5040905;28;20049;-58
2022/07/15 08:23:09;;;;;;;1999.90;999.90;;;;;;;22.96;55.07;99823.13;5045407;28;20052;-57
2022/07/15 08:25:53;;;;;;;1999.90;999.90;;;;;;;21.97;56.09;99842.81;5044506;28;20548;-59
2022/07/15 08:28:38;;;;;;;1999.90;999.90;;;;;;;22.07;54.71;99840.34;5041100;28;20160;-58
2022/07/15 08:31:23;;;;;;;1999.90;999.90;;;;;;;23.67;50.47;99846.06;5043639;28;20033;-58
2022/07/15 08:34:08;;;;;;;1999.90;999.90;;;;;;;23.78;54.16;99845.25;5041526;28;20118;-58
2022/07/15 08:36:52;;;;;;;1999.90;999.90;;;;;;;24.16;50.36;99849.38;5045356;28;20041;-59
2022/07/15 08:39:37;;;;;;;1999.90;999.90;;;;;;;23.63;48.04;99854.47;5043489;28;20481;-58
2022/07/15 08:42:22;;;;;;;1999.90;999.90;;;;;;;22.12;50.38;99856.84;5043655;28;20106;-57
2022/07/15 08:45:07;;;;;;;1999.90;999.90;;;;;;;21.14;54.51;99858.38;5043042;28;20037;-57
2022/07/15 08:47:52;;;;;;;1999.90;999.90;;;;;;;22.16;53.83;99855.69;5042762;28;20049;-57
2022/07/15 08:50:37;;;;;;;1999.90;999.90;;;;;;;20.99;56.84;99858.47;5042531;28;20548;-57
2022/07/15 08:53:21;;;;;;;1999.90;999.90;;;;;;;21.09;53.66;99841.84;5043547;28;20045;-59
2022/07/15 08:56:06;;;;;;;1999.90;999.90;;;;;;;20.70;53.75;99855.09;5043141;28;20037;-56
2022/07/15 08:58:51;;;;;;;1999.90;999.90;;;;;;;20.40;54.12;99863.22;5038423;28;20045;-57
2022/07/15 09:01:42;;;;;;;1999.90;999.90;;;;;;;21.49;52.94;99871.97;5040710;28;20041;-56
2022/07/15 09:04:27;;;;;;;1999.90;999.90;;;;;;;22.47;52.31;99864.16;5041183;28;20041;-58
2022/07/15 09:07:12;;;;;;;1999.90;999.90;;;;;;;21.80;53.49;99875.16;5038813;28;20127;-57
2022/07/15 09:09:56;;;;;;;1999.90;999.90;;;;;;;22.39;54.19;99870.91;5040958;28;20474;-57
2022/07/15 09:12:42;;;;;;;1999.90;999.90;;;;;;;21.57;51.73;99871.44;5040962;28;20049;-58
2022/07/15 09:15:31;;;;;;;1999.90;999.90;;;;;;;20.20;57.45;99877.81;5042413;28;20098;-57
2022/07/15 09:18:19;;;;;;;1999.90;999.90;;;;;;;19.91;59.03;99884.97;5040187;28;20128;-57
2022/07/15 09:21:20;;;;;;;1999.90;999.90;;;;;;;20.21;59.68;99895.44;5043208;28;20468;-55
2022/07/15 09:24:18;;;;;;;1999.90;999.90;;;;;;;20.70;59.09;99892.34;5042830;28;20045;-57
2022/07/15 09:27:30;;;;;;;1999.90;999.90;;;;;;;21.92;58.14;99887.63;5044186;28;20048;-57
2022/07/15 09:33:34;;;;;;;1999.90;999.90;;;;;;;20.66;60.60;99888.16;5040813;28;20324;-56
2022/07/15 09:36:24;;;;;;;1999.90;999.90;;;;;;;20.09;58.94;99885.63;5043113;28;20178;-56
2022/07/15 09:39:09;;;;;;;1999.90;999.90;;;;;;;20.21;58.81;99891.94;5039053;28;20484;-56
2022/07/15 09:41:53;;;;;;;1999.90;999.90;;;;;;;20.27;59.61;99894.22;5043634;28;20164;-57
2022/07/15 09:44:38;;;;;;;1999.90;999.90;;;;;;;21.76;55.29;99882.50;5042506;28;20057;-56
2022/07/15 09:47:24;;;;;;;1999.90;999.90;;;;;;;21.70;57.82;99893.59;5042007;28;20067;-57
2022/07/15 09:50:11;;;;;;;1999.90;999.90;;;;;;;20.82;58.36;99890.66;5044409;28;20497;-56
2022/07/15 09:52:56;;;;;;;1999.90;999.90;;;;;;;21.80;55.91;99893.81;5042350;28;20491;-56
2022/07/15 09:55:41;;;;;;;1999.90;999.90;;;;;;;21.30;57.45;99893.66;5043875;28;20049;-56
2022/07/15 09:58:27;;;;;;;1999.90;999.90;;;;;;;20.50;56.68;99904.22;5044251;28;20051;-56
2022/07/15 10:01:11;;;;;;;1999.90;999.90;;;;;;;20.99;57.95;99885.09;5042485;28;20053;-56
2022/07/15 10:03:57;;;;;;;1999.90;999.90;;;;;;;22.33;55.53;99891.84;5045265;28;20048;-56
2022/07/15 10:06:43;;;;;;;1999.90;999.90;;;;;;;21.13;55.59;99876.16;5041699;28;20045;-56
2022/07/15 10:09:30;;;;;;;1999.90;999.90;;;;;;;20.83;56.69;99891.50;5043154;28;20046;-57
2022/07/15 10:12:19;;;;;;;1999.90;999.90;;;;;;;22.14;53.20;99886.94;5044105;28;20045;-57
2022/07/15 10:15:21;;;;;;;1999.90;999.90;;;;;;;21.79;52.42;99884.13;5043624;28;20037;-57
2022/07/15 10:18:27;;;;;;;1999.90;999.90;;;;;;;22.72;49.21;99869.38;5042407;28;20041;-56
2022/07/15 10:21:35;;;;;;;1999.90;999.90;;;;;;;23.26;46.94;99878.69;5041590;28;20044;-58
2022/07/15 10:24:48;;;;;;;1999.90;999.90;;;;;;;20.58;52.68;99871.84;5045756;28;20041;-57
2022/07/15 10:28:11;;;;;;;1999.90;999.90;;;;;;;20.98;54.30;99899.34;5043435;28;20044;-57
2022/07/15 10:31:14;;;;;;;;;;;;;;;21.47;52.21;99885.38;5033537;28;20524;-57
2022/07/15 10:34:04;;;;;;;1999.90;999.90;;;;;;;22.13;54.84;99893.22;5040367;28;19925;-57
2022/07/15 10:36:53;;;;;;;1999.90;999.90;;;;;;;22.80;51.91;99888.31;5041106;28;20049;-56
2022/07/15 10:40:06;;;;;;;1999.90;999.90;;;;;;;23.56;50.61;99872.78;5043481;28;20087;-57
2022/07/15 10:43:01;;;;;;;1999.90;999.90;;;;;;;23.94;51.10;99885.84;5040973;28;20370;-58
2022/07/15 10:46:04;;;;;;;1999.90;999.90;;;;;;;22.12;53.67;99897.72;5040443;28;20488;-57
2022/07/15 10:48:59;;;;;;;1999.90;999.90;;;;;;;22.59;50.96;99889.94;5043391;28;20603;-58
2022/07/15 10:51:45;;;;;;;1999.90;999.90;;;;;;;23.22;48.02;99886.09;5041841;28;20468;-57
2022/07/15 10:54:32;;;;;;;1999.90;999.90;;;;;;;23.68;47.10;99884.34;5042754;28;20063;-57
2022/07/15 10:57:20;;;;;;;1999.90;999.90;;;;;;;23.41;45.37;99882.84;5043194;28;20049;-57
2022/07/15 11:00:05;;;;;;;1999.90;999.90;;;;;;;22.44;49.10;99888.38;5046523;28;20049;-58
2022/07/15 11:03:17;;;;;;;1999.90;999.90;;;;;;;21.30;53.03;99890.16;5046186;28;20366;-57
2022/07/15 11:06:04;;;;;;;1999.90;999.90;;;;;;;21.01;52.08;99896.47;5047321;28;20048;-57
2022/07/15 11:08:50;;;;;;;1999.90;999.90;;;;;;;20.53;52.56;99898.75;5046550;28;20041;-56
2022/07/15 11:11:55;;;;;;;1999.90;999.90;;;;;;;22.13;50.32;99896.75;5048906;28;20049;-57
2022/07/15 11:15:06;;;;;;;1999.90;999.90;;;;;;;21.49;47.79;99887.97;5046307;28;20057;-58
2022/07/15 11:17:54;;;;;;;1999.90;999.90;;;;;;;21.11;50.81;99887.88;5045829;28;20045;-56
2022/07/15 11:20:38;;;;;;;1999.90;999.90;;;;;;;20.91;52.64;99898.03;5044887;28;20049;-57
2022/07/15 11:23:30;;;;;;;1999.90;999.90;;;;;;;20.82;53.77;99898.66;5049094;28;20052;-57
2022/07/15 11:26:15;;;;;;;1999.90;999.90;;;;;;;21.66;52.30;99897.44;5050516;28;20392;-56
2022/07/15 11:29:00;;;;;;;1999.90;999.90;;;;;;;21.44;51.54;99896.25;5046264;28;20455;-57
2022/07/15 11:31:45;;;;;;;1999.90;999.90;;;;;;;22.88;49.39;99890.44;5046490;28;20041;-58
2022/07/15 11:34:42;;;;;;;1999.90;999.90;;;;;;;22.92;48.64;99893.72;5044015;28;20107;-57
2022/07/15 11:37:31;;;;;;;1999.90;999.90;;;;;;;23.21;47.14;99881.72;5047128;28;20052;-57
2022/07/15 11:46:24;;;;;;;1999.90;999.90;;;;;;;21.48;49.28;99883.56;5047594;28;20055;-58
2022/07/15 11:49:10;;;;;;;1999.90;999.90;;;;;;;21.11;51.52;99891.38;5045687;28;20123;-57
2022/07/15 11:51:55;;;;;;;1999.90;999.90;;;;;;;20.65;50.48;99886.47;5046289;28;20052;-57
2022/07/15 11:54:40;;;;;;;1999.90;999.90;;;;;;;20.64;51.09;99889.25;5042923;28;20044;-57
2022/07/15 11:57:32;;;;;;;1999.90;999.90;;;;;;;20.82;50.63;99901.31;5043885;28;20041;-58
2022/07/15 12:00:19;;;;;;;1999.90;999.90;;;;;;;20.71;55.59;99904.69;5043543;28;20048;-56
2022/07/15 12:03:08;;;;;;;1999.90;999.90;;;;;;;21.33;52.29;99911.25;5044180;28;20049;-55
2022/07/15 12:06:03;;;;;;;1999.90;999.90;;;;;;;21.59;53.69;99894.34;5043945;28;20055;-57
2022/07/15 12:08:56;;;;;;;1999.90;999.90;;;;;;;21.98;48.05;99900.50;5046037;28;20500;-56
2022/07/15 12:11:41;;;;;;;1999.90;999.90;;;;;;;21.70;48.66;99896.25;5045982;28;20052;-57
2022/07/15 12:14:26;;;;;;;1999.90;999.90;;;;;;;20.83;49.96;99905.69;5044306;28;20045;-56
2022/07/15 12:17:10;;;;;;;1999.90;999.90;;;;;;;21.19;53.48;99909.53;5046575;28;20050;-56
2022/07/15 12:19:55;;;;;;;1999.90;999.90;;;;;;;21.08;50.50;99904.06;5047281;28;20055;-56
2022/07/15 12:23:17;;;;;;;1999.90;999.90;;;;;;;22.43;52.40;99906.22;5046496;28;20619;-57
2022/07/15 12:26:04;;;;;;;1999.90;999.90;;;;;;;22.46;51.31;99894.47;5043971;28;20052;-56
2022/07/15 12:28:55;;;;;;;1999.90;999.90;;;;;;;21.99;48.39;99904.88;5044279;28;20049;-55
2022/07/15 12:31:43;;;;;;;1999.90;999.90;;;;;;;20.86;49.98;99910.78;5044328;28;20080;-56
2022/07/15 12:34:46;;;;;;;1999.90;999.90;;;;;;;21.26;51.44;99908.16;5042670;28;20044;-55